sensor_id;sensor_type;location;lat;lon;timestamp;pressure;altitude;pressure_sealevel;temperature;humidity
65276;BME280;51875;49.994;14.052;2023-07-29T00:00:52;97789.59;;;19.14;100.00
65276;BME280;51875;49.994;14.052;2023-07-29T00:02:15;97791.28;;;19.15;100.00
65276;BME280;51875;49.994;14.052;2023-07-29T00:03:31;97792.28;;;19.25;100.00
65276;BME280;51875;49.994;14.052;2023-07-29T00:04:47;97782.69;;;19.36;100.00
65276;BME280;51875;49.994;14.052;2023-07-29T00:06:02;97791.59;;;19.34;100.00
65276;BME280;51875;49.994;14.052;2023-07-29T00:07:18;97786.41;;;19.33;100.00
65276;BME280;51875;49.994;14.052;2023-07-29T00:08:33;97781.13;;;19.44;100.00
65276;BME280;51875;49.994;14.052;2023-07-29T00:09:48;97776.69;;;19.45;100.00
65276;BME280;51875;49.994;14.052;2023-07-29T00:11:04;97779.44;;;19.43;100.00
65276;BME280;51875;49.994;14.052;2023-07-29T00:12:19;97788.28;;;19.55;100.00
65276;BME280;51875;49.994;14.052;2023-07-29T00:13:35;97785.19;;;19.61;100.00
65276;BME280;51875;49.994;14.052;2023-07-29T00:14:50;97784.31;;;19.50;100.00
65276;BME280;51875;49.994;14.052;2023-07-29T00:16:05;97788.66;;;19.62;100.00
65276;BME280;51875;49.994;14.052;2023-07-29T00:17:21;97788.59;;;19.75;100.00
65276;BME280;51875;49.994;14.052;2023-07-29T00:18:37;97786.91;;;19.74;100.00
65276;BME280;51875;49.994;14.052;2023-07-29T00:19:52;97788.22;;;19.68;100.00
65276;BME280;51875;49.994;14.052;2023-07-29T00:21:07;97788.84;;;19.83;100.00
65276;BME280;51875;49.994;14.052;2023-07-29T00:22:23;97778.59;;;19.79;100.00
65276;BME280;51875;49.994;14.052;2023-07-29T00:23:38;97784.28;;;19.85;100.00
65276;BME280;51875;49.994;14.052;2023-07-29T00:24:54;97785.00;;;19.87;100.00
65276;BME280;51875;49.994;14.052;2023-07-29T00:26:12;97785.59;;;19.80;100.00
65276;BME280;51875;49.994;14.052;2023-07-29T00:27:28;97779.19;;;19.82;100.00
65276;BME280;51875;49.994;14.052;2023-07-29T00:28:43;97781.09;;;19.80;100.00
65276;BME280;51875;49.994;14.052;2023-07-29T00:29:59;97769.28;;;19.73;100.00
65276;BME280;51875;49.994;14.052;2023-07-29T00:31:14;97781.84;;;19.82;100.00
65276;BME280;51875;49.994;14.052;2023-07-29T00:32:30;97775.19;;;19.88;100.00
65276;BME280;51875;49.994;14.052;2023-07-29T00:33:46;97776.75;;;19.79;100.00
65276;BME280;51875;49.994;14.052;2023-07-29T00:35:01;97782.81;;;19.81;100.00
65276;BME280;51875;49.994;14.052;2023-07-29T00:36:17;97789.69;;;19.84;100.00
65276;BME280;51875;49.994;14.052;2023-07-29T00:37:32;97790.59;;;19.96;100.00
65276;BME280;51875;49.994;14.052;2023-07-29T00:38:47;97796.75;;;19.96;100.00
65276;BME280;51875;49.994;14.052;2023-07-29T00:40:04;97791.50;;;19.83;100.00
65276;BME280;51875;49.994;14.052;2023-07-29T00:41:19;97798.78;;;19.93;100.00
65276;BME280;51875;49.994;14.052;2023-07-29T00:42:36;97794.53;;;19.90;100.00
65276;BME280;51875;49.994;14.052;2023-07-29T00:43:52;97802.91;;;19.97;100.00
65276;BME280;51875;49.994;14.052;2023-07-29T00:45:07;97804.03;;;19.81;100.00
65276;BME280;51875;49.994;14.052;2023-07-29T00:46:22;97795.72;;;19.86;100.00
65276;BME280;51875;49.994;14.052;2023-07-29T00:47:39;97798.44;;;19.97;100.00
65276;BME280;51875;49.994;14.052;2023-07-29T00:48:55;97795.69;;;19.99;100.00
65276;BME280;51875;49.994;14.052;2023-07-29T00:50:11;97790.47;;;19.97;100.00
65276;BME280;51875;49.994;14.052;2023-07-29T00:51:27;97791.28;;;19.86;100.00
65276;BME280;51875;49.994;14.052;2023-07-29T00:52:42;97786.75;;;19.75;100.00
65276;BME280;51875;49.994;14.052;2023-07-29T00:53:58;97786.03;;;19.73;100.00
65276;BME280;51875;49.994;14.052;2023-07-29T00:55:13;97790.75;;;19.70;100.00
65276;BME280;51875;49.994;14.052;2023-07-29T00:56:28;97787.56;;;19.53;100.00
65276;BME280;51875;49.994;14.052;2023-07-29T00:57:44;97783.53;;;19.36;100.00
65276;BME280;51875;49.994;14.052;2023-07-29T00:59:03;97773.91;;;19.46;100.00
65276;BME280;51875;49.994;14.052;2023-07-29T01:00:19;97782.00;;;19.45;100.00
65276;BME280;51875;49.994;14.052;2023-07-29T01:01:35;97785.97;;;19.39;100.00
65276;BME280;51875;49.994;14.052;2023-07-29T01:02:52;97782.41;;;19.03;100.00
65276;BME280;51875;49.994;14.052;2023-07-29T01:04:09;97782.34;;;19.40;100.00
65276;BME280;51875;49.994;14.052;2023-07-29T01:05:26;97781.81;;;19.59;100.00
65276;BME280;51875;49.994;14.052;2023-07-29T01:08:05;97783.34;;;19.51;100.00
65276;BME280;51875;49.994;14.052;2023-07-29T01:12:20;97782.28;;;19.65;100.00
65276;BME280;51875;49.994;14.052;2023-07-29T01:13:42;97784.19;;;19.51;100.00
65276;BME280;51875;49.994;14.052;2023-07-29T01:16:17;97781.41;;;19.17;100.00
65276;BME280;51875;49.994;14.052;2023-07-29T01:17:38;97781.75;;;19.12;100.00
65276;BME280;51875;49.994;14.052;2023-07-29T01:18:56;97784.63;;;18.96;100.00
65276;BME280;51875;49.994;14.052;2023-07-29T01:20:14;97786.38;;;18.84;100.00
65276;BME280;51875;49.994;14.052;2023-07-29T01:21:29;97789.59;;;18.76;100.00
65276;BME280;51875;49.994;14.052;2023-07-29T01:22:45;97786.22;;;18.74;100.00
65276;BME280;51875;49.994;14.052;2023-07-29T01:24:02;97783.25;;;19.03;100.00
65276;BME280;51875;49.994;14.052;2023-07-29T01:25:17;97789.28;;;18.68;100.00
65276;BME280;51875;49.994;14.052;2023-07-29T01:26:32;97777.41;;;18.74;100.00
65276;BME280;51875;49.994;14.052;2023-07-29T01:27:49;97785.88;;;18.79;100.00
65276;BME280;51875;49.994;14.052;2023-07-29T01:29:06;97777.38;;;18.87;100.00
65276;BME280;51875;49.994;14.052;2023-07-29T01:30:22;97779.06;;;18.88;100.00
65276;BME280;51875;49.994;14.052;2023-07-29T01:31:40;97780.44;;;18.81;100.00
65276;BME280;51875;49.994;14.052;2023-07-29T01:34:17;97774.88;;;18.72;100.00
65276;BME280;51875;49.994;14.052;2023-07-29T01:35:39;97776.88;;;18.69;100.00
65276;BME280;51875;49.994;14.052;2023-07-29T01:36:57;97781.63;;;18.76;100.00
65276;BME280;51875;49.994;14.052;2023-07-29T01:38:18;97778.19;;;19.00;100.00
65276;BME280;51875;49.994;14.052;2023-07-29T01:39:35;97781.56;;;19.02;100.00
65276;BME280;51875;49.994;14.052;2023-07-29T01:40:52;97778.47;;;19.09;100.00
65276;BME280;51875;49.994;14.052;2023-07-29T01:42:07;97774.59;;;18.88;100.00
65276;BME280;51875;49.994;14.052;2023-07-29T01:43:23;97774.88;;;18.72;100.00
65276;BME280;51875;49.994;14.052;2023-07-29T01:44:41;97783.66;;;18.73;100.00
65276;BME280;51875;49.994;14.052;2023-07-29T01:45:57;97777.41;;;18.74;100.00
65276;BME280;51875;49.994;14.052;2023-07-29T01:47:13;97776.47;;;18.62;100.00
65276;BME280;51875;49.994;14.052;2023-07-29T01:48:28;97782.06;;;18.70;100.00
65276;BME280;51875;49.994;14.052;2023-07-29T01:49:45;97776.91;;;18.56;100.00
65276;BME280;51875;49.994;14.052;2023-07-29T01:51:00;97770.03;;;18.53;100.00
65276;BME280;51875;49.994;14.052;2023-07-29T01:52:16;97771.09;;;18.51;100.00
65276;BME280;51875;49.994;14.052;2023-07-29T01:53:32;97773.75;;;18.51;100.00
65276;BME280;51875;49.994;14.052;2023-07-29T01:54:47;97772.00;;;18.75;100.00
65276;BME280;51875;49.994;14.052;2023-07-29T01:56:02;97768.06;;;18.68;100.00
65276;BME280;51875;49.994;14.052;2023-07-29T01:57:18;97768.41;;;18.63;100.00
65276;BME280;51875;49.994;14.052;2023-07-29T01:58:33;97765.09;;;18.73;100.00
65276;BME280;51875;49.994;14.052;2023-07-29T01:59:48;97766.69;;;18.75;100.00
65276;BME280;51875;49.994;14.052;2023-07-29T02:01:04;97768.69;;;18.34;100.00
65276;BME280;51875;49.994;14.052;2023-07-29T02:02:19;97763.66;;;18.56;100.00
65276;BME280;51875;49.994;14.052;2023-07-29T02:03:35;97770.78;;;18.55;100.00
65276;BME280;51875;49.994;14.052;2023-07-29T02:04:50;97770.84;;;18.67;100.00
65276;BME280;51875;49.994;14.052;2023-07-29T02:06:07;97777.34;;;18.49;100.00
65276;BME280;51875;49.994;14.052;2023-07-29T02:07:22;97777.03;;;18.54;100.00
65276;BME280;51875;49.994;14.052;2023-07-29T02:08:38;97781.09;;;18.71;100.00
65276;BME280;51875;49.994;14.052;2023-07-29T02:09:56;97773.53;;;18.91;100.00
65276;BME280;51875;49.994;14.052;2023-07-29T02:11:11;97775.28;;;18.79;100.00
65276;BME280;51875;49.994;14.052;2023-07-29T02:12:26;97778.59;;;18.70;100.00
65276;BME280;51875;49.994;14.052;2023-07-29T02:13:42;97774.34;;;18.67;100.00
65276;BME280;51875;49.994;14.052;2023-07-29T02:14:57;97772.88;;;18.50;100.00
65276;BME280;51875;49.994;14.052;2023-07-29T02:16:12;97772.38;;;18.58;100.00
65276;BME280;51875;49.994;14.052;2023-07-29T02:17:28;97774.34;;;18.67;100.00
65276;BME280;51875;49.994;14.052;2023-07-29T02:18:43;97767.59;;;19.00;100.00
65276;BME280;51875;49.994;14.052;2023-07-29T02:19:59;97766.44;;;19.16;100.00
65276;BME280;51875;49.994;14.052;2023-07-29T02:21:14;97774.34;;;19.04;100.00
65276;BME280;51875;49.994;14.052;2023-07-29T02:22:30;97771.38;;;18.96;100.00
65276;BME280;51875;49.994;14.052;2023-07-29T02:23:45;97770.09;;;19.02;100.00
65276;BME280;51875;49.994;14.052;2023-07-29T02:25:00;97775.81;;;19.09;100.00
65276;BME280;51875;49.994;14.052;2023-07-29T02:26:16;97765.66;;;18.89;100.00
65276;BME280;51875;49.994;14.052;2023-07-29T02:27:32;97769.69;;;18.95;100.00
65276;BME280;51875;49.994;14.052;2023-07-29T02:28:48;97761.91;;;19.05;100.00
65276;BME280;51875;49.994;14.052;2023-07-29T02:30:04;97770.16;;;19.13;100.00
65276;BME280;51875;49.994;14.052;2023-07-29T02:31:20;97773.69;;;19.14;100.00
65276;BME280;51875;49.994;14.052;2023-07-29T02:32:36;97767.63;;;19.12;100.00
65276;BME280;51875;49.994;14.052;2023-07-29T02:33:51;97771.75;;;19.16;100.00
65276;BME280;51875;49.994;14.052;2023-07-29T02:35:07;97768.81;;;19.08;100.00
65276;BME280;51875;49.994;14.052;2023-07-29T02:36:23;97769.19;;;19.14;100.00
65276;BME280;51875;49.994;14.052;2023-07-29T02:37:38;97773.47;;;19.04;100.00
65276;BME280;51875;49.994;14.052;2023-07-29T02:38:53;97780.63;;;19.03;100.00
65276;BME280;51875;49.994;14.052;2023-07-29T02:40:09;97777.97;;;19.03;100.00
65276;BME280;51875;49.994;14.052;2023-07-29T02:41:24;97776.78;;;19.08;100.00
65276;BME280;51875;49.994;14.052;2023-07-29T02:42:40;97778.47;;;19.09;100.00
65276;BME280;51875;49.994;14.052;2023-07-29T02:43:55;97779.47;;;18.95;100.00
65276;BME280;51875;49.994;14.052;2023-07-29T02:45:10;97774.41;;;18.78;100.00
65276;BME280;51875;49.994;14.052;2023-07-29T02:46:27;97778.91;;;18.65;100.00
65276;BME280;51875;49.994;14.052;2023-07-29T02:47:42;97780.69;;;18.77;100.00
65276;BME280;51875;49.994;14.052;2023-07-29T02:48:57;97784.06;;;18.80;100.00
65276;BME280;51875;49.994;14.052;2023-07-29T02:50:13;97776.16;;;18.67;100.00
65276;BME280;51875;49.994;14.052;2023-07-29T02:51:28;97783.47;;;18.63;100.00
65276;BME280;51875;49.994;14.052;2023-07-29T02:52:44;97777.63;;;18.71;100.00
65276;BME280;51875;49.994;14.052;2023-07-29T02:53:59;97778.84;;;18.78;100.00
65276;BME280;51875;49.994;14.052;2023-07-29T02:55:14;97779.06;;;18.88;100.00
65276;BME280;51875;49.994;14.052;2023-07-29T02:56:30;97780.28;;;18.95;100.00
65276;BME280;51875;49.994;14.052;2023-07-29T02:57:48;97782.19;;;19.06;100.00
65276;BME280;51875;49.994;14.052;2023-07-29T02:59:03;97779.88;;;19.01;100.00
65276;BME280;51875;49.994;14.052;2023-07-29T03:00:20;97772.53;;;19.05;100.00
65276;BME280;51875;49.994;14.052;2023-07-29T03:01:35;97776.03;;;19.05;100.00
65276;BME280;51875;49.994;14.052;2023-07-29T03:02:51;97781.09;;;19.09;100.00
65276;BME280;51875;49.994;14.052;2023-07-29T03:04:06;97783.50;;;19.00;100.00
65276;BME280;51875;49.994;14.052;2023-07-29T03:05:22;97791.53;;;18.99;100.00
65276;BME280;51875;49.994;14.052;2023-07-29T03:06:37;97784.22;;;18.89;100.00
65276;BME280;51875;49.994;14.052;2023-07-29T03:07:52;97784.53;;;18.98;100.00
65276;BME280;51875;49.994;14.052;2023-07-29T03:09:08;97792.91;;;18.91;100.00
65276;BME280;51875;49.994;14.052;2023-07-29T03:10:23;97785.59;;;18.95;100.00
65276;BME280;51875;49.994;14.052;2023-07-29T03:11:39;97788.25;;;18.95;100.00
65276;BME280;51875;49.994;14.052;2023-07-29T03:12:54;97791.34;;;18.89;100.00
65276;BME280;51875;49.994;14.052;2023-07-29T03:14:10;97787.97;;;18.87;100.00
65276;BME280;51875;49.994;14.052;2023-07-29T03:15:26;97790.97;;;18.82;100.00
65276;BME280;51875;49.994;14.052;2023-07-29T03:16:41;97792.78;;;18.69;100.00
65276;BME280;51875;49.994;14.052;2023-07-29T03:17:57;97791.84;;;18.70;100.00
65276;BME280;51875;49.994;14.052;2023-07-29T03:19:12;97790.09;;;18.82;100.00
65276;BME280;51875;49.994;14.052;2023-07-29T03:20:28;97788.31;;;18.82;100.00
65276;BME280;51875;49.994;14.052;2023-07-29T03:21:43;97791.59;;;18.86;100.00
65276;BME280;51875;49.994;14.052;2023-07-29T03:22:58;97777.78;;;18.81;100.00
65276;BME280;51875;49.994;14.052;2023-07-29T03:24:14;97784.78;;;18.82;100.00
65276;BME280;51875;49.994;14.052;2023-07-29T03:25:29;97780.91;;;18.74;100.00
65276;BME280;51875;49.994;14.052;2023-07-29T03:26:44;97793.59;;;18.45;100.00
65276;BME280;51875;49.994;14.052;2023-07-29T03:28:00;97793.16;;;18.38;100.00
65276;BME280;51875;49.994;14.052;2023-07-29T03:29:15;97793.59;;;18.45;100.00
65276;BME280;51875;49.994;14.052;2023-07-29T03:30:31;97779.06;;;18.51;100.00
65276;BME280;51875;49.994;14.052;2023-07-29T03:31:46;97786.34;;;18.60;100.00
65276;BME280;51875;49.994;14.052;2023-07-29T03:33:02;97789.97;;;18.59;100.00
65276;BME280;51875;49.994;14.052;2023-07-29T03:34:17;97787.09;;;18.62;100.00
65276;BME280;51875;49.994;14.052;2023-07-29T03:35:33;97792.38;;;18.62;100.00
65276;BME280;51875;49.994;14.052;2023-07-29T03:36:48;97789.34;;;18.42;100.00
65276;BME280;51875;49.994;14.052;2023-07-29T03:38:03;97789.16;;;18.19;100.00
65276;BME280;51875;49.994;14.052;2023-07-29T03:39:19;97793.00;;;18.02;100.00
65276;BME280;51875;49.994;14.052;2023-07-29T03:40:34;97786.09;;;18.26;100.00
65276;BME280;51875;49.994;14.052;2023-07-29T03:41:49;97789.03;;;18.21;100.00
65276;BME280;51875;49.994;14.052;2023-07-29T03:43:05;97789.16;;;18.19;100.00
65276;BME280;51875;49.994;14.052;2023-07-29T03:44:20;97788.63;;;18.14;100.00
65276;BME280;51875;49.994;14.052;2023-07-29T03:45:36;97790.19;;;18.30;100.00
65276;BME280;51875;49.994;14.052;2023-07-29T03:46:51;97789.69;;;18.25;100.00
65276;BME280;51875;49.994;14.052;2023-07-29T03:48:07;97794.56;;;18.31;100.00
65276;BME280;51875;49.994;14.052;2023-07-29T03:49:22;97782.44;;;18.53;100.00
65276;BME280;51875;49.994;14.052;2023-07-29T03:50:37;97792.53;;;18.47;100.00
65276;BME280;51875;49.994;14.052;2023-07-29T03:51:53;97794.31;;;18.47;100.00
65276;BME280;51875;49.994;14.052;2023-07-29T03:53:08;97792.63;;;18.59;100.00
65276;BME280;51875;49.994;14.052;2023-07-29T03:54:25;97789.69;;;18.38;100.00
65276;BME280;51875;49.994;14.052;2023-07-29T03:55:40;97796.59;;;18.27;100.00
65276;BME280;51875;49.994;14.052;2023-07-29T03:56:56;97792.91;;;18.04;100.00
65276;BME280;51875;49.994;14.052;2023-07-29T03:58:11;97796.50;;;18.03;100.00
65276;BME280;51875;49.994;14.052;2023-07-29T03:59:26;97792.66;;;18.07;100.00
65276;BME280;51875;49.994;14.052;2023-07-29T04:00:42;97796.78;;;18.37;100.00
65276;BME280;51875;49.994;14.052;2023-07-29T04:01:57;97796.78;;;18.37;100.00
65276;BME280;51875;49.994;14.052;2023-07-29T04:03:13;97797.50;;;18.52;100.00
65276;BME280;51875;49.994;14.052;2023-07-29T04:04:28;97791.31;;;18.64;100.00
65276;BME280;51875;49.994;14.052;2023-07-29T04:05:44;97791.50;;;18.74;100.00
65276;BME280;51875;49.994;14.052;2023-07-29T04:06:59;97799.16;;;18.66;100.00
65276;BME280;51875;49.994;14.052;2023-07-29T04:08:15;97794.72;;;18.67;100.00
65276;BME280;51875;49.994;14.052;2023-07-29T04:09:30;97797.38;;;18.67;100.00
65276;BME280;51875;49.994;14.052;2023-07-29T04:10:46;97788.41;;;18.81;100.00
65276;BME280;51875;49.994;14.052;2023-07-29T04:12:01;97797.38;;;18.67;100.00
65276;BME280;51875;49.994;14.052;2023-07-29T04:13:17;97800.44;;;18.73;100.00
65276;BME280;51875;49.994;14.052;2023-07-29T04:14:32;97789.28;;;18.68;100.00
65276;BME280;51875;49.994;14.052;2023-07-29T04:15:48;97795.72;;;18.77;100.00
65276;BME280;51875;49.994;14.052;2023-07-29T04:17:03;97791.28;;;18.77;100.00
65276;BME280;51875;49.994;14.052;2023-07-29T04:18:19;97797.38;;;18.67;100.00
65276;BME280;51875;49.994;14.052;2023-07-29T04:19:34;97797.94;;;18.83;100.00
65276;BME280;51875;49.994;14.052;2023-07-29T04:20:50;97791.03;;;18.94;100.00
65276;BME280;51875;49.994;14.052;2023-07-29T04:22:05;97790.41;;;18.90;100.00
65276;BME280;51875;49.994;14.052;2023-07-29T04:23:20;97786.66;;;19.05;100.00
65276;BME280;51875;49.994;14.052;2023-07-29T04:24:37;97801.50;;;19.08;100.00
65276;BME280;51875;49.994;14.052;2023-07-29T04:25:53;97802.97;;;19.12;100.00
65276;BME280;51875;49.994;14.052;2023-07-29T04:27:08;97789.38;;;19.17;100.00
65276;BME280;51875;49.994;14.052;2023-07-29T04:28:24;97796.91;;;19.34;100.00
65276;BME280;51875;49.994;14.052;2023-07-29T04:29:40;97800.56;;;19.45;100.00
65276;BME280;51875;49.994;14.052;2023-07-29T04:30:55;97800.81;;;19.53;100.00
65276;BME280;51875;49.994;14.052;2023-07-29T04:32:10;97804.59;;;19.62;100.00
65276;BME280;51875;49.994;14.052;2023-07-29T04:33:25;97798.44;;;19.61;100.00
65276;BME280;51875;49.994;14.052;2023-07-29T04:34:41;97803.44;;;19.66;100.00
65276;BME280;51875;49.994;14.052;2023-07-29T04:35:56;97808.88;;;19.76;100.00
65276;BME280;51875;49.994;14.052;2023-07-29T04:37:12;97807.91;;;19.77;100.00
65276;BME280;51875;49.994;14.052;2023-07-29T04:38:30;97798.63;;;19.83;100.00
65276;BME280;51875;49.994;14.052;2023-07-29T04:39:46;97806.00;;;19.90;100.00
65276;BME280;51875;49.994;14.052;2023-07-29T04:41:01;97806.25;;;19.87;100.00
65276;BME280;51875;49.994;14.052;2023-07-29T04:42:17;97804.03;;;19.81;100.00
65276;BME280;51875;49.994;14.052;2023-07-29T04:43:32;97804.22;;;19.91;100.00
65276;BME280;51875;49.994;14.052;2023-07-29T04:44:48;97804.31;;;19.89;100.00
65276;BME280;51875;49.994;14.052;2023-07-29T04:46:06;97808.81;;;20.00;100.00
65276;BME280;51875;49.994;14.052;2023-07-29T04:47:21;97810.31;;;20.04;100.00
65276;BME280;51875;49.994;14.052;2023-07-29T04:48:37;97812.81;;;20.06;100.00
65276;BME280;51875;49.994;14.052;2023-07-29T04:49:52;97807.19;;;20.22;100.00
65276;BME280;51875;49.994;14.052;2023-07-29T04:51:07;97804.59;;;20.09;100.00
65276;BME280;51875;49.994;14.052;2023-07-29T04:52:23;97810.28;;;20.16;100.00
65276;BME280;51875;49.994;14.052;2023-07-29T04:53:38;97813.22;;;20.24;100.00
65276;BME280;51875;49.994;14.052;2023-07-29T04:54:53;97812.94;;;20.16;100.00
65276;BME280;51875;49.994;14.052;2023-07-29T04:56:09;97808.25;;;20.31;100.00
65276;BME280;51875;49.994;14.052;2023-07-29T04:57:24;97806.22;;;20.23;100.00
65276;BME280;51875;49.994;14.052;2023-07-29T04:58:40;97808.88;;;20.23;100.00
65276;BME280;51875;49.994;14.052;2023-07-29T04:59:55;97806.59;;;20.41;100.00
65276;BME280;51875;49.994;14.052;2023-07-29T05:01:10;97801.00;;;20.44;100.00
65276;BME280;51875;49.994;14.052;2023-07-29T05:02:26;97805.25;;;20.24;100.00
65276;BME280;51875;49.994;14.052;2023-07-29T05:03:41;97805.25;;;20.24;100.00
65276;BME280;51875;49.994;14.052;2023-07-29T05:04:56;97802.94;;;20.20;100.00
65276;BME280;51875;49.994;14.052;2023-07-29T05:06:12;97799.81;;;20.26;100.00
65276;BME280;51875;49.994;14.052;2023-07-29T05:07:27;97800.41;;;20.41;100.00
65276;BME280;51875;49.994;14.052;2023-07-29T05:08:43;97803.66;;;20.33;100.00
65276;BME280;51875;49.994;14.052;2023-07-29T05:09:58;97801.84;;;20.45;100.00
65276;BME280;51875;49.994;14.052;2023-07-29T05:11:13;97810.44;;;20.49;100.00
65276;BME280;51875;49.994;14.052;2023-07-29T05:12:29;97800.16;;;20.44;100.00
65276;BME280;51875;49.994;14.052;2023-07-29T05:13:44;97807.78;;;20.49;100.00
65276;BME280;51875;49.994;14.052;2023-07-29T05:15:00;97807.06;;;20.58;100.00
65276;BME280;51875;49.994;14.052;2023-07-29T05:16:15;97807.66;;;20.62;100.00
65276;BME280;51875;49.994;14.052;2023-07-29T05:17:30;97809.22;;;20.64;100.00
65276;BME280;51875;49.994;14.052;2023-07-29T05:18:46;97810.53;;;20.70;100.00
65276;BME280;51875;49.994;14.052;2023-07-29T05:20:01;97803.78;;;20.77;100.00
65276;BME280;51875;49.994;14.052;2023-07-29T05:21:17;97809.22;;;20.53;100.00
65276;BME280;51875;49.994;14.052;2023-07-29T05:22:32;97804.03;;;20.63;100.00
65276;BME280;51875;49.994;14.052;2023-07-29T05:23:48;97800.97;;;20.67;100.00
65276;BME280;51875;49.994;14.052;2023-07-29T05:25:03;97806.19;;;20.46;100.00
65276;BME280;51875;49.994;14.052;2023-07-29T05:26:19;97805.13;;;20.49;100.00
65276;BME280;51875;49.994;14.052;2023-07-29T05:27:34;97805.97;;;20.60;100.00
65276;BME280;51875;49.994;14.052;2023-07-29T05:28:50;97799.44;;;20.65;100.00
65276;BME280;51875;49.994;14.052;2023-07-29T05:30:05;97805.84;;;20.62;100.00
65276;BME280;51875;49.994;14.052;2023-07-29T05:31:21;97803.16;;;20.73;100.00
65276;BME280;51875;49.994;14.052;2023-07-29T05:32:37;97801.25;;;20.87;100.00
65276;BME280;51875;49.994;14.052;2023-07-29T05:33:53;97794.22;;;20.86;100.00
65276;BME280;51875;49.994;14.052;2023-07-29T05:35:08;97796.63;;;20.78;100.00
65276;BME280;51875;49.994;14.052;2023-07-29T05:36:23;97797.34;;;20.91;100.00
65276;BME280;51875;49.994;14.052;2023-07-29T05:37:39;97791.78;;;20.94;100.00
65276;BME280;51875;49.994;14.052;2023-07-29T05:38:57;97798.47;;;21.21;100.00
65276;BME280;51875;49.994;14.052;2023-07-29T05:40:13;97791.16;;;21.35;100.00
65276;BME280;51875;49.994;14.052;2023-07-29T05:41:28;97793.97;;;21.33;100.00
65276;BME280;51875;49.994;14.052;2023-07-29T05:42:44;97795.84;;;21.42;100.00
65276;BME280;51875;49.994;14.052;2023-07-29T05:44:00;97795.28;;;21.39;100.00
65276;BME280;51875;49.994;14.052;2023-07-29T05:45:16;97796.50;;;21.56;100.00
65276;BME280;51875;49.994;14.052;2023-07-29T05:46:31;97789.22;;;21.37;100.00
65276;BME280;51875;49.994;14.052;2023-07-29T05:47:47;97793.63;;;21.59;100.00
65276;BME280;51875;49.994;14.052;2023-07-29T05:49:02;97795.03;;;21.63;100.00
65276;BME280;51875;49.994;14.052;2023-07-29T05:50:18;97797.69;;;21.63;100.00
65276;BME280;51875;49.994;14.052;2023-07-29T05:51:33;97790.03;;;21.49;100.00
65276;BME280;51875;49.994;14.052;2023-07-29T05:52:49;97795.31;;;21.60;100.00
65276;BME280;51875;49.994;14.052;2023-07-29T05:54:04;97790.91;;;21.70;100.00
65276;BME280;51875;49.994;14.052;2023-07-29T05:55:20;97793.00;;;21.88;100.00
65276;BME280;51875;49.994;14.052;2023-07-29T05:56:35;97796.50;;;21.67;100.00
65276;BME280;51875;49.994;14.052;2023-07-29T05:57:50;97802.97;;;21.53;100.00
65276;BME280;51875;49.994;14.052;2023-07-29T05:59:06;97801.00;;;21.55;100.00
65276;BME280;51875;49.994;14.052;2023-07-29T06:00:21;97798.19;;;21.57;100.00
65276;BME280;51875;49.994;14.052;2023-07-29T06:01:36;97799.06;;;21.57;100.00
65276;BME280;51875;49.994;14.052;2023-07-29T06:02:52;97799.16;;;21.67;100.00
65276;BME280;51875;49.994;14.052;2023-07-29T06:04:07;97801.00;;;21.67;100.00
65276;BME280;51875;49.994;14.052;2023-07-29T06:05:23;97795.91;;;21.85;100.00
65276;BME280;51875;49.994;14.052;2023-07-29T06:06:38;97790.41;;;21.77;100.00
65276;BME280;51875;49.994;14.052;2023-07-29T06:07:53;97796.44;;;21.79;100.00
65276;BME280;51875;49.994;14.052;2023-07-29T06:09:09;97787.44;;;22.01;100.00
65276;BME280;51875;49.994;14.052;2023-07-29T06:10:24;97792.97;;;22.09;100.00
65276;BME280;51875;49.994;14.052;2023-07-29T06:11:39;97791.34;;;22.18;100.00
65276;BME280;51875;49.994;14.052;2023-07-29T06:12:55;97790.81;;;22.34;100.00
65276;BME280;51875;49.994;14.052;2023-07-29T06:14:10;97793.94;;;22.08;100.00
65276;BME280;51875;49.994;14.052;2023-07-29T06:15:26;97789.88;;;22.14;100.00
65276;BME280;51875;49.994;14.052;2023-07-29T06:16:41;97787.72;;;21.98;100.00
65276;BME280;51875;49.994;14.052;2023-07-29T06:17:56;97792.03;;;22.20;100.00
65276;BME280;51875;49.994;14.052;2023-07-29T06:19:12;97792.88;;;22.21;100.00
65276;BME280;51875;49.994;14.052;2023-07-29T06:20:28;97790.63;;;22.47;100.00
65276;BME280;51875;49.994;14.052;2023-07-29T06:21:43;97792.13;;;22.40;100.00
65276;BME280;51875;49.994;14.052;2023-07-29T06:22:59;97788.22;;;21.92;100.00
65276;BME280;51875;49.994;14.052;2023-07-29T06:24:14;97788.00;;;22.26;100.00
65276;BME280;51875;49.994;14.052;2023-07-29T06:25:30;97788.31;;;22.33;100.00
65276;BME280;51875;49.994;14.052;2023-07-29T06:26:45;97790.81;;;22.34;100.00
65276;BME280;51875;49.994;14.052;2023-07-29T06:28:00;97785.44;;;22.24;100.00
65276;BME280;51875;49.994;14.052;2023-07-29T06:29:16;97790.09;;;22.22;100.00
65276;BME280;51875;49.994;14.052;2023-07-29T06:30:31;97787.66;;;22.09;100.00
65276;BME280;51875;49.994;14.052;2023-07-29T06:31:47;97791.63;;;21.94;100.00
65276;BME280;51875;49.994;14.052;2023-07-29T06:33:02;97788.81;;;21.95;100.00
65276;BME280;51875;49.994;14.052;2023-07-29T06:34:18;97792.63;;;22.24;100.00
65276;BME280;51875;49.994;14.052;2023-07-29T06:35:33;97790.59;;;22.37;100.00
65276;BME280;51875;49.994;14.052;2023-07-29T06:36:49;97791.09;;;22.31;100.00
65276;BME280;51875;49.994;14.052;2023-07-29T06:38:04;97790.94;;;22.54;100.00